LEZLLEAM

Guest
Details From LEZL - Sevilla
To LEAM - Almeria
Flight Number -
Tags generated
Created
Modified
Stats Distance 172 nm / 319 km
Max Altitude 17,900 ft / 5,456 m
Waypoints 3
Social Downloads 4
Likes 0
Share VATSIM

Download

Looking for another format? Having issues loading an existing format? Contact us
Advertisement - Login to hide

Notes

Basic altitude profile: - Ascent Rate: 2500ft/min - Ascent Speed: 250kts - Cruise Altitude: 35000ft - Cruise Speed: 420kts - Descent Rate: 1500ft/min - Descent Speed: 250kts Options: - Use NATs: yes - Use PACOTS: yes - Use low airways: yes - Use high airways: yes

Route

LEZL LOJAS LEAM

ID Type Via Altitude Latitude Longitude Leg Dist Tot Dist Heading (true) Name
O LEZL APT - 0 ft / 0 m 37.41794˚ -5.89309˚ - 0 nm - Sevilla
LOJAS FIX - 17,900 ft / 5,456 m 37.20728˚ -4.15392˚ 84 nm 84 nm 98° / 99° -
O LEAM APT - 0 ft / 0 m 36.84393˚ -2.37010˚ 88 nm 172 nm 104° / 105° Almeria

Altitude Profile

Advertisement - Login to hide

Weather


0- 5 10 15 20 25 30 35+ Temperature / ° C

Clouds and Precipitation
Forecast for 2018-05-20 12:00 UTC. Updated an hour ago

Ground ~20,000 ft ~40,000 ft Winds

LEZL

Details ICAO LEZL (SVQ)
Name Sevilla
Region Spain
Timezone Europe/Madrid (UTC+2.0)
Stats Elevation 111 ft / 34 m (AMSL)
Location 37.417939° -5.893093°
Runways 1
Magnetic Variation 1.246° W

METAR

LEZL 201200Z 03012KT CAVOK 22/16 Q1014 NOSIG

Decode

TAF

TAF LEZL 200800Z 2009/2109 VRB03KT 9999 SCT040 TX26/2015Z TN13/2105Z PROB40 TEMPO 2012/2020 18010KT 4000 SHRA SCT030TCU PROB40 TEMPO 2012/2020 18015G25KT 2000 TSRA SCT015 SCT035CB

Decode

Departure Runways

ID Width Length Bearing (true) Bearing (mag) Surface Threshold Offset Overrun Length
09 148 ft / 45 m 11,008 ft / 3,355 m 89.75° 91.00° Asphalt 0 ft / 0 m 0 ft / 0 m
27 148 ft / 45 m 11,008 ft / 3,355 m 269.77° 271.02° Asphalt 0 ft / 0 m 0 ft / 0 m

LEAM

Details ICAO LEAM (LEI)
Name Almeria
Region Spain
Timezone Unknown (UTC+0.0)
Stats Elevation 70 ft / 21 m (AMSL)
Location 36.843935° -2.370097°
Runways 1
Magnetic Variation 0.240° W

METAR

LEAM 201200Z 19007KT 160V230 9999 FEW010 21/15 Q1014

Decode

TAF

TAF TAF LEAM 200800Z 2009/2109 19010KT 9999 FEW015 TX23/2013Z TN14/2105Z BECMG 2018/2020 35004KT PROB40 TEMPO 2103/2107 BKN012

Decode

Destination Runways

ID Width Length Bearing (true) Bearing (mag) Surface Threshold Offset Overrun Length
08 148 ft / 45 m 10,484 ft / 3,196 m 72.94° 73.18° Asphalt 492 ft / 150 m 191 ft / 58 m
26 148 ft / 45 m 10,484 ft / 3,196 m 252.96° 253.20° Asphalt 0 ft / 0 m 150 ft / 46 m

Approach Navaids

Runway Type Ident Frequency Range Bearing (true) Bearing (mag) Slope Elevation
26 Localiser IAM 109.90 MHz 18 nm / 33 km 252.94° 253.18° - 70 ft / 21 m (AMSL)
26 Glidescope IAM 109.90 MHz 10 nm / 19 km 252.95° 253.19° 3.00° 70 ft / 21 m (AMSL)
26 DME IAM 109.90 MHz 18 nm / 33 km - - - 95 ft / 29 m (AMSL)

Popular Alternatives